createdAt,value
2022-07-28T00:00:40.133Z,0.30
2022-07-28T00:03:06.757Z,0.50
2022-07-28T00:05:33.352Z,0.13
2022-07-28T00:08:01.133Z,0.30
2022-07-28T00:10:27.828Z,0.30
2022-07-28T00:12:54.382Z,0.30
2022-07-28T00:15:20.973Z,0.25
2022-07-28T00:17:47.563Z,0.20
2022-07-28T00:20:14.292Z,0.30
2022-07-28T00:22:44.141Z,0.40
2022-07-28T00:25:11.009Z,0.30
2022-07-28T00:27:37.726Z,0.20
2022-07-28T00:30:08.254Z,0.28
2022-07-28T00:32:35.032Z,0.32
2022-07-28T00:35:02.416Z,0.30
2022-07-28T00:37:29.424Z,0.25
2022-07-28T00:39:56.242Z,0.30
2022-07-28T00:42:23.092Z,0.30
2022-07-28T00:44:49.853Z,0.30
2022-07-28T00:47:16.520Z,0.30
2022-07-28T00:49:44.896Z,0.30
2022-07-28T00:52:12.466Z,0.20
2022-07-28T00:54:39.196Z,0.30
2022-07-28T00:57:06.396Z,0.30
2022-07-28T00:59:33.792Z,0.22
2022-07-28T01:02:00.819Z,0.28
2022-07-28T01:04:27.645Z,0.20
2022-07-28T01:07:18.710Z,0.28
2022-07-28T01:09:50.814Z,0.32
2022-07-28T01:12:40.293Z,0.20
2022-07-28T01:15:14.807Z,0.32
2022-07-28T01:17:44.104Z,0.30
2022-07-28T01:20:18.274Z,0.20
2022-07-28T01:23:06.520Z,0.30
2022-07-28T01:25:48.583Z,0.40
2022-07-28T01:29:01.736Z,0.38
2022-07-28T01:31:32.554Z,0.30
2022-07-28T01:34:00.901Z,0.30
2022-07-28T01:36:52.694Z,0.30
2022-07-28T01:39:19.914Z,0.20
2022-07-28T01:41:47.221Z,0.40
2022-07-28T01:44:17.023Z,0.30
2022-07-28T01:46:44.801Z,0.25
2022-07-28T01:49:12.170Z,0.30
2022-07-28T01:51:40.100Z,0.30
2022-07-28T01:54:08.030Z,0.25
2022-07-28T01:56:34.916Z,0.40
2022-07-28T01:59:06.113Z,0.30
2022-07-28T02:01:39.089Z,0.40
2022-07-28T02:04:06.821Z,0.30
2022-07-28T02:06:34.252Z,0.30
2022-07-28T02:09:03.098Z,0.20
2022-07-28T02:11:40.100Z,0.30
2022-07-28T02:14:13.700Z,0.25
2022-07-28T02:16:46.819Z,0.20
2022-07-28T02:19:14.202Z,0.30
2022-07-28T02:21:42.786Z,0.20
2022-07-28T02:24:10.086Z,0.30
2022-07-28T02:26:38.593Z,0.30
2022-07-28T02:29:06.873Z,0.25
2022-07-28T02:31:42.189Z,0.30
2022-07-28T02:34:11.254Z,0.28
2022-07-28T02:36:41.507Z,0.30
2022-07-28T02:39:18.056Z,0.20
2022-07-28T02:41:44.769Z,0.30
2022-07-28T02:44:16.690Z,0.32
2022-07-28T02:46:45.504Z,0.30
2022-07-28T02:49:21.678Z,0.30
2022-07-28T02:51:49.728Z,0.40
2022-07-28T02:54:17.904Z,0.30
2022-07-28T02:56:53.354Z,0.20
2022-07-28T02:59:21.171Z,0.20
2022-07-28T03:01:48.371Z,0.30
2022-07-28T03:04:15.857Z,0.25
2022-07-28T03:06:42.715Z,0.20
2022-07-28T03:09:09.713Z,0.30
2022-07-28T03:11:36.280Z,0.20
2022-07-28T03:14:02.864Z,0.22
2022-07-28T03:16:29.478Z,0.20
2022-07-28T03:18:56.511Z,0.28
2022-07-28T03:21:23.062Z,0.20
2022-07-28T03:23:50.392Z,0.32
2022-07-28T03:26:25.826Z,0.20
2022-07-28T03:28:53.211Z,0.30
2022-07-28T03:31:20.472Z,0.20
2022-07-28T03:33:48.006Z,0.30
2022-07-28T03:36:17.521Z,0.30
2022-07-28T03:38:48.136Z,0.30
2022-07-28T03:41:15.205Z,0.20
2022-07-28T03:43:42.050Z,0.20
2022-07-28T03:46:13.084Z,0.20
2022-07-28T03:48:40.151Z,0.30
2022-07-28T03:51:06.777Z,0.35
2022-07-28T03:53:33.361Z,0.30
2022-07-28T03:55:59.940Z,0.28
2022-07-28T03:58:28.617Z,0.30
2022-07-28T04:00:56.065Z,0.40
2022-07-28T04:03:42.907Z,0.28
2022-07-28T04:06:09.324Z,0.20
2022-07-28T04:08:35.951Z,0.20
2022-07-28T04:11:02.565Z,0.20
2022-07-28T04:13:29.224Z,0.20
2022-07-28T04:15:55.792Z,0.30
2022-07-28T04:18:22.357Z,0.30
2022-07-28T04:20:49.068Z,0.25
2022-07-28T04:23:15.711Z,0.20
2022-07-28T04:25:42.280Z,0.30
2022-07-28T04:28:09.309Z,0.32
2022-07-28T04:30:40.707Z,0.22
2022-07-28T04:33:10.891Z,0.20
2022-07-28T04:35:37.964Z,0.30
2022-07-28T04:38:04.643Z,0.22
2022-07-28T04:40:31.211Z,0.20
2022-07-28T04:42:57.824Z,0.30
2022-07-28T04:45:24.441Z,0.30
2022-07-28T04:47:51.889Z,0.10
2022-07-28T04:50:21.314Z,0.30
2022-07-28T04:52:50.958Z,0.22
2022-07-28T04:55:18.110Z,0.20
2022-07-28T04:57:45.010Z,0.10
2022-07-28T05:00:13.812Z,0.20
2022-07-28T05:02:44.754Z,0.20
2022-07-28T05:05:12.211Z,0.20
2022-07-28T05:07:39.401Z,0.30
2022-07-28T05:10:07.324Z,0.30
2022-07-28T05:12:33.963Z,0.22
2022-07-28T05:15:00.639Z,0.20
2022-07-28T05:17:27.398Z,0.20
2022-07-28T05:19:54.059Z,0.30
2022-07-28T05:22:20.876Z,0.20
2022-07-28T05:24:47.431Z,0.30
2022-07-28T05:27:14.053Z,0.28
2022-07-28T05:29:47.383Z,0.20
2022-07-28T05:32:16.868Z,0.20
2022-07-28T05:34:44.961Z,0.20
2022-07-28T05:37:12.121Z,0.30
2022-07-28T05:39:39.014Z,0.20
2022-07-28T05:42:05.810Z,0.20
2022-07-28T05:44:37.621Z,0.17
2022-07-28T05:47:05.178Z,0.23
2022-07-28T05:49:31.743Z,0.30
2022-07-28T05:51:58.301Z,0.22
2022-07-28T05:54:25.041Z,0.10
2022-07-28T05:56:52.505Z,0.20
2022-07-28T05:59:19.138Z,0.20
2022-07-28T06:01:46.124Z,0.20
2022-07-28T06:04:28.959Z,0.30
2022-07-28T06:06:56.988Z,0.30
2022-07-28T06:09:23.674Z,0.30
2022-07-28T06:11:50.856Z,0.20
2022-07-28T06:14:18.747Z,0.20
2022-07-28T06:16:50.950Z,0.20
2022-07-28T06:19:18.288Z,0.15
2022-07-28T06:21:44.899Z,0.30
2022-07-28T06:24:11.848Z,0.20
2022-07-28T06:26:44.387Z,0.15
2022-07-28T06:29:11.573Z,0.22
2022-07-28T06:31:39.002Z,0.20
2022-07-28T06:34:05.764Z,0.25
2022-07-28T06:36:32.433Z,0.15
2022-07-28T06:38:59.007Z,0.20
2022-07-28T06:41:25.615Z,0.20
2022-07-28T06:43:52.442Z,0.22
2022-07-28T06:46:19.635Z,0.30
2022-07-28T06:48:46.395Z,0.20
2022-07-28T06:51:13.107Z,0.22
2022-07-28T06:53:39.690Z,0.30
2022-07-28T06:56:07.539Z,0.20
2022-07-28T06:58:37.472Z,0.30
2022-07-28T07:01:07.804Z,0.20
2022-07-28T07:03:34.827Z,0.20
2022-07-28T07:06:01.402Z,0.38
2022-07-28T07:08:28.073Z,0.20
2022-07-28T07:10:54.841Z,0.30
2022-07-28T07:13:21.510Z,0.20
2022-07-28T07:15:48.115Z,0.22
2022-07-28T07:18:14.760Z,0.20
2022-07-28T07:20:41.976Z,0.30
2022-07-28T07:23:08.553Z,0.25
2022-07-28T07:25:35.306Z,0.30
2022-07-28T07:28:01.980Z,0.40
2022-07-28T07:30:28.773Z,0.20
2022-07-28T07:32:55.598Z,0.30
2022-07-28T07:35:22.210Z,0.25
2022-07-28T07:37:48.784Z,0.30
2022-07-28T07:40:15.359Z,0.30
2022-07-28T07:42:41.948Z,0.20
2022-07-28T07:45:08.977Z,0.20
2022-07-28T07:47:35.726Z,0.30
2022-07-28T07:50:04.390Z,0.20
2022-07-28T07:52:31.329Z,0.30
2022-07-28T07:54:57.997Z,0.35
2022-07-28T07:57:24.622Z,0.40
2022-07-28T07:59:51.199Z,0.35
2022-07-28T08:02:17.813Z,0.32
2022-07-28T08:04:44.432Z,0.20
2022-07-28T08:07:11.328Z,0.20
2022-07-28T08:09:38.691Z,0.30
2022-07-28T08:12:05.766Z,0.40
2022-07-28T08:14:32.500Z,0.50
2022-07-28T08:16:59.614Z,0.40
2022-07-28T08:19:26.603Z,0.30
2022-07-28T08:21:53.229Z,0.38
2022-07-28T08:24:33.770Z,1.20
2022-07-28T08:27:01.826Z,0.85
2022-07-28T08:29:28.438Z,1.20
2022-07-28T08:31:55.039Z,1.00
2022-07-28T08:34:26.308Z,0.80
2022-07-28T08:36:58.517Z,0.80
2022-07-28T08:39:25.126Z,0.90
2022-07-28T08:42:03.145Z,0.70
2022-07-28T08:44:58.468Z,1.05
2022-07-28T08:47:40.674Z,1.00
2022-07-28T08:50:13.822Z,0.85
2022-07-28T08:52:41.312Z,0.90
2022-07-28T08:55:08.892Z,1.15
2022-07-28T08:57:37.890Z,1.40
2022-07-28T09:00:05.347Z,1.60
2022-07-28T09:02:33.018Z,1.20
2022-07-28T09:04:59.843Z,1.10
2022-07-28T09:07:27.073Z,1.00
2022-07-28T09:09:57.260Z,0.90
2022-07-28T09:12:28.941Z,1.05
2022-07-28T09:14:55.535Z,1.10
2022-07-28T09:17:22.120Z,1.00
2022-07-28T09:19:48.745Z,0.95
2022-07-28T09:22:15.320Z,0.90
2022-07-28T09:24:44.826Z,0.75
2022-07-28T09:27:12.727Z,0.98
2022-07-28T09:29:41.541Z,0.75
2022-07-28T09:32:08.638Z,0.70
2022-07-28T09:34:45.707Z,0.98
2022-07-28T09:37:26.806Z,0.70
2022-07-28T09:39:58.490Z,0.65
2022-07-28T09:42:25.831Z,0.73
2022-07-28T09:45:25.069Z,1.10
2022-07-28T09:48:13.488Z,0.60
2022-07-28T09:50:41.581Z,0.77
2022-07-28T09:53:22.459Z,0.90
2022-07-28T09:55:57.293Z,0.82
2022-07-28T09:58:23.909Z,0.90
2022-07-28T10:01:11.600Z,0.80
2022-07-28T10:03:40.820Z,0.50
2022-07-28T10:06:08.577Z,0.57
2022-07-28T10:08:44.178Z,0.63
2022-07-28T10:11:11.968Z,0.68
2022-07-28T10:14:00.522Z,0.90
2022-07-28T10:16:29.582Z,0.65
2022-07-28T10:18:57.358Z,0.55
2022-07-28T10:21:25.281Z,0.70
2022-07-28T10:23:57.059Z,0.68
2022-07-28T10:26:31.469Z,0.77
2022-07-28T10:29:03.037Z,0.80
2022-07-28T10:31:43.461Z,0.82
2022-07-28T10:34:25.617Z,0.60
2022-07-28T10:36:54.726Z,0.50
2022-07-28T10:39:23.653Z,0.68
2022-07-28T10:41:50.520Z,0.50
2022-07-28T10:44:19.628Z,0.65
2022-07-28T10:46:46.894Z,0.60
2022-07-28T10:49:14.625Z,0.65
2022-07-28T10:52:00.156Z,0.50
2022-07-28T10:54:30.783Z,0.55
2022-07-28T10:57:00.398Z,0.50
2022-07-28T10:59:49.006Z,0.40
2022-07-28T11:02:44.971Z,0.50
2022-07-28T11:05:41.276Z,0.50
2022-07-28T11:08:27.659Z,0.50
2022-07-28T11:11:06.764Z,0.70
2022-07-28T11:13:37.047Z,0.60
2022-07-28T11:16:13.611Z,0.57
2022-07-28T11:19:07.982Z,0.60
2022-07-28T11:22:18.631Z,0.70
2022-07-28T11:25:18.574Z,0.80
2022-07-28T11:27:54.371Z,0.50
2022-07-28T11:30:33.050Z,0.70
2022-07-28T11:33:00.917Z,0.50
2022-07-28T11:35:28.467Z,0.65
2022-07-28T11:38:01.233Z,0.68
2022-07-28T11:40:37.124Z,0.70
2022-07-28T11:43:26.001Z,0.60
2022-07-28T11:46:10.124Z,0.50
2022-07-28T11:48:39.465Z,0.73
2022-07-28T11:51:06.160Z,0.50
2022-07-28T11:53:46.033Z,0.60
2022-07-28T11:56:22.264Z,0.57
2022-07-28T11:58:56.605Z,0.68
2022-07-28T12:01:23.206Z,0.70
2022-07-28T12:03:59.119Z,0.52
2022-07-28T12:06:35.433Z,0.55
2022-07-28T12:09:04.671Z,0.50
2022-07-28T12:11:33.320Z,0.55
2022-07-28T12:14:14.196Z,0.60
2022-07-28T12:16:43.247Z,0.50
2022-07-28T12:19:10.746Z,0.32
2022-07-28T12:21:46.343Z,0.75
2022-07-28T12:24:21.092Z,0.77
2022-07-28T12:26:50.233Z,0.70
2022-07-28T12:29:17.444Z,0.70
2022-07-28T12:32:04.852Z,0.50
2022-07-28T12:34:35.005Z,0.60
2022-07-28T12:37:03.632Z,0.60
2022-07-28T12:39:34.096Z,0.73
2022-07-28T12:42:05.744Z,0.55
2022-07-28T12:44:39.582Z,0.85
2022-07-28T12:47:11.905Z,0.60
2022-07-28T12:49:39.969Z,0.60
2022-07-28T12:52:22.137Z,0.60
2022-07-28T12:54:53.280Z,0.60
2022-07-28T12:57:48.038Z,0.50
2022-07-28T13:00:19.482Z,0.60
2022-07-28T13:02:47.142Z,0.70
2022-07-28T13:05:32.442Z,0.60
2022-07-28T13:08:05.753Z,0.45
2022-07-28T13:10:32.619Z,0.60
2022-07-28T13:13:08.670Z,0.50
2022-07-28T13:15:35.246Z,0.40
2022-07-28T13:18:01.982Z,0.50
2022-07-28T13:20:28.671Z,0.50
2022-07-28T13:22:56.054Z,0.40
2022-07-28T13:25:22.678Z,0.40
2022-07-28T13:27:54.548Z,0.60
2022-07-28T13:30:22.208Z,0.63
2022-07-28T13:32:49.247Z,0.40
2022-07-28T13:35:15.939Z,0.50
2022-07-28T13:37:45.574Z,0.40
2022-07-28T13:40:12.629Z,0.43
2022-07-28T13:42:39.292Z,0.63
2022-07-28T13:45:06.244Z,0.60
2022-07-28T13:47:35.637Z,0.40
2022-07-28T13:50:07.225Z,0.55
2022-07-28T13:52:37.498Z,0.47
2022-07-28T13:55:06.277Z,0.43
2022-07-28T13:57:35.764Z,0.50
2022-07-28T14:00:07.530Z,0.50
2022-07-28T14:02:34.765Z,0.50
2022-07-28T14:05:01.642Z,0.57
2022-07-28T14:07:28.360Z,0.43
2022-07-28T14:09:55.181Z,0.50
2022-07-28T14:12:21.773Z,0.52
2022-07-28T14:14:48.990Z,0.65
2022-07-28T14:20:09.695Z,0.30
2022-07-28T14:22:36.323Z,0.50
2022-07-28T14:25:02.977Z,0.55
2022-07-28T14:27:29.642Z,0.50
2022-07-28T14:29:56.254Z,0.50
2022-07-28T14:32:23.223Z,0.57
2022-07-28T14:34:50.535Z,0.60
2022-07-28T14:37:18.070Z,0.60
2022-07-28T14:39:44.678Z,0.70
2022-07-28T14:42:11.487Z,0.55
2022-07-28T14:44:38.117Z,0.50
2022-07-28T14:47:04.983Z,0.60
2022-07-28T14:49:31.686Z,0.40
2022-07-28T14:51:59.464Z,0.50
2022-07-28T14:54:27.715Z,0.50
2022-07-28T14:56:54.423Z,0.55
2022-07-28T14:59:21.038Z,0.57
2022-07-28T15:01:48.797Z,0.52
2022-07-28T15:04:16.301Z,0.52
2022-07-28T15:06:43.421Z,0.52
2022-07-28T15:09:10.202Z,0.60
2022-07-28T15:11:37.531Z,0.60
2022-07-28T15:14:04.531Z,0.50
2022-07-28T15:16:31.389Z,0.60
2022-07-28T15:18:58.305Z,0.70
2022-07-28T15:21:25.092Z,0.50
2022-07-28T15:23:51.753Z,0.40
2022-07-28T15:26:18.351Z,0.60
2022-07-28T15:28:48.305Z,0.57
2022-07-28T15:31:15.989Z,0.60
2022-07-28T15:33:48.163Z,0.50
2022-07-28T15:36:18.475Z,0.60
2022-07-28T15:38:47.387Z,0.60
2022-07-28T15:41:16.484Z,0.57
2022-07-28T15:43:43.170Z,0.45
2022-07-28T15:46:12.886Z,0.60
2022-07-28T15:48:41.328Z,0.50
2022-07-28T15:51:08.844Z,0.45
2022-07-28T15:53:36.644Z,0.57
2022-07-28T15:56:04.208Z,0.50
2022-07-28T15:58:30.909Z,0.63
2022-07-28T16:00:57.466Z,0.57
2022-07-28T16:03:28.053Z,0.50
2022-07-28T16:05:54.742Z,0.70
2022-07-28T16:08:22.908Z,0.70
2022-07-28T16:10:51.333Z,0.60
2022-07-28T16:13:28.612Z,0.47
2022-07-28T16:16:04.412Z,0.50
2022-07-28T16:18:32.011Z,0.65
2022-07-28T16:20:58.597Z,0.50
2022-07-28T16:23:25.186Z,0.60
2022-07-28T16:25:51.750Z,0.52
2022-07-28T16:28:18.370Z,0.60
2022-07-28T16:30:45.026Z,0.45
2022-07-28T16:33:11.659Z,0.70
2022-07-28T16:35:38.257Z,0.47
2022-07-28T16:38:05.827Z,0.60
2022-07-28T16:40:33.302Z,0.60
2022-07-28T16:43:03.380Z,0.90
2022-07-28T16:45:31.181Z,0.80
2022-07-28T16:47:58.922Z,0.70
2022-07-28T16:50:25.936Z,0.70
2022-07-28T16:52:53.056Z,0.60
2022-07-28T16:55:23.454Z,0.70
2022-07-28T16:57:50.984Z,0.50
2022-07-28T17:00:18.567Z,0.47
2022-07-28T17:02:45.206Z,0.50
2022-07-28T17:05:12.735Z,0.75
2022-07-28T17:07:45.790Z,0.50
2022-07-28T17:10:14.365Z,0.55
2022-07-28T17:12:40.954Z,0.73
2022-07-28T17:15:20.095Z,0.50
2022-07-28T17:17:51.036Z,0.70
2022-07-28T17:20:17.714Z,0.65
2022-07-28T17:22:45.040Z,0.80
2022-07-28T17:27:38.511Z,0.65
2022-07-28T17:32:54.833Z,0.50
2022-07-28T17:35:34.627Z,0.68
2022-07-28T17:38:03.733Z,0.70
2022-07-28T17:40:30.597Z,0.60
2022-07-28T17:42:57.209Z,0.60
2022-07-28T17:45:24.816Z,0.40
2022-07-28T17:47:51.829Z,0.60
2022-07-28T17:50:18.781Z,0.57
2022-07-28T17:52:45.697Z,0.50
2022-07-28T17:57:52.164Z,0.60
2022-07-28T18:00:20.769Z,0.40
2022-07-28T18:02:50.663Z,0.40
2022-07-28T18:05:17.714Z,0.35
2022-07-28T18:07:48.598Z,0.50
2022-07-28T18:10:17.073Z,0.63
2022-07-28T18:12:46.831Z,0.65
2022-07-28T18:15:13.639Z,0.50
2022-07-28T18:17:55.564Z,0.70
2022-07-28T18:20:23.965Z,0.40
2022-07-28T18:22:50.705Z,0.35
2022-07-28T18:25:17.430Z,0.52
2022-07-28T18:27:44.177Z,0.60
2022-07-28T18:30:11.430Z,0.30
2022-07-28T18:32:38.061Z,0.52
2022-07-28T18:35:04.848Z,0.50
2022-07-28T18:37:31.421Z,0.47
2022-07-28T18:39:57.993Z,0.50
2022-07-28T18:42:24.603Z,0.43
2022-07-28T18:44:51.193Z,0.43
2022-07-28T18:47:17.805Z,0.60
2022-07-28T18:49:44.373Z,0.50
2022-07-28T18:52:10.949Z,0.50
2022-07-28T18:54:37.757Z,0.30
2022-07-28T18:57:04.432Z,0.50
2022-07-28T18:59:32.499Z,0.38
2022-07-28T19:01:59.258Z,0.50
2022-07-28T19:04:25.990Z,0.70
2022-07-28T19:06:52.576Z,0.50
2022-07-28T19:09:19.529Z,0.50
2022-07-28T19:11:46.778Z,0.60
2022-07-28T19:14:14.989Z,0.45
2022-07-28T19:16:41.990Z,0.50
2022-07-28T19:19:08.659Z,0.40
2022-07-28T19:21:35.386Z,0.50
2022-07-28T19:24:02.232Z,0.70
2022-07-28T19:26:29.548Z,0.50
2022-07-28T19:31:21.930Z,0.63
2022-07-28T19:33:48.560Z,0.50
2022-07-28T19:36:15.208Z,0.50
2022-07-28T19:38:42.286Z,0.57
2022-07-28T19:41:09.303Z,0.40
2022-07-28T19:43:36.137Z,0.50
2022-07-28T19:46:03.036Z,0.50
